sensor_id;sensor_type;location;lat;lon;timestamp;P1;durP1;ratioP1;P2;durP2;ratioP2
18748;SDS011;9503;53.560;10.246;2023-06-14T00:00:01;5.03;;;3.37;;
18748;SDS011;9503;53.560;10.246;2023-06-14T00:02:30;5.93;;;3.20;;
18748;SDS011;9503;53.560;10.246;2023-06-14T00:04:57;5.70;;;3.00;;
18748;SDS011;9503;53.560;10.246;2023-06-14T00:07:33;6.37;;;3.50;;
18748;SDS011;9503;53.560;10.246;2023-06-14T00:10:00;4.03;;;3.40;;
18748;SDS011;9503;53.560;10.246;2023-06-14T00:12:28;8.10;;;3.80;;
18748;SDS011;9503;53.560;10.246;2023-06-14T00:14:55;5.47;;;3.50;;
18748;SDS011;9503;53.560;10.246;2023-06-14T00:17:22;5.30;;;3.60;;
18748;SDS011;9503;53.560;10.246;2023-06-14T00:19:49;5.57;;;3.60;;
18748;SDS011;9503;53.560;10.246;2023-06-14T00:22:15;5.43;;;3.10;;
18748;SDS011;9503;53.560;10.246;2023-06-14T00:24:42;6.00;;;3.50;;
18748;SDS011;9503;53.560;10.246;2023-06-14T00:27:08;6.67;;;3.47;;
18748;SDS011;9503;53.560;10.246;2023-06-14T00:29:36;5.80;;;3.27;;
18748;SDS011;9503;53.560;10.246;2023-06-14T00:32:03;9.37;;;3.47;;
18748;SDS011;9503;53.560;10.246;2023-06-14T00:34:30;6.20;;;3.20;;
18748;SDS011;9503;53.560;10.246;2023-06-14T00:36:57;7.30;;;3.47;;
18748;SDS011;9503;53.560;10.246;2023-06-14T00:39:24;7.80;;;3.43;;
18748;SDS011;9503;53.560;10.246;2023-06-14T00:41:50;6.90;;;3.27;;
18748;SDS011;9503;53.560;10.246;2023-06-14T00:44:17;5.57;;;3.10;;
18748;SDS011;9503;53.560;10.246;2023-06-14T00:46:45;7.00;;;3.43;;
18748;SDS011;9503;53.560;10.246;2023-06-14T00:49:13;5.60;;;3.50;;
18748;SDS011;9503;53.560;10.246;2023-06-14T00:51:41;6.83;;;3.83;;
18748;SDS011;9503;53.560;10.246;2023-06-14T00:54:08;4.43;;;3.00;;
18748;SDS011;9503;53.560;10.246;2023-06-14T00:56:35;4.67;;;3.60;;
18748;SDS011;9503;53.560;10.246;2023-06-14T00:59:02;6.03;;;3.30;;
18748;SDS011;9503;53.560;10.246;2023-06-14T01:01:29;6.97;;;3.90;;
18748;SDS011;9503;53.560;10.246;2023-06-14T01:03:59;5.97;;;3.60;;
18748;SDS011;9503;53.560;10.246;2023-06-14T01:06:28;5.07;;;3.63;;
18748;SDS011;9503;53.560;10.246;2023-06-14T01:09:01;3.90;;;3.20;;
18748;SDS011;9503;53.560;10.246;2023-06-14T01:11:37;8.47;;;3.53;;
18748;SDS011;9503;53.560;10.246;2023-06-14T01:14:10;6.60;;;3.73;;
18748;SDS011;9503;53.560;10.246;2023-06-14T01:16:40;8.40;;;3.60;;
18748;SDS011;9503;53.560;10.246;2023-06-14T01:19:08;6.63;;;3.27;;
18748;SDS011;9503;53.560;10.246;2023-06-14T01:21:38;6.90;;;3.47;;
18748;SDS011;9503;53.560;10.246;2023-06-14T01:24:08;6.17;;;3.33;;
18748;SDS011;9503;53.560;10.246;2023-06-14T01:26:36;6.97;;;3.80;;
18748;SDS011;9503;53.560;10.246;2023-06-14T01:29:06;9.03;;;4.03;;
18748;SDS011;9503;53.560;10.246;2023-06-14T01:31:33;5.40;;;3.30;;
18748;SDS011;9503;53.560;10.246;2023-06-14T01:34:06;7.67;;;3.80;;
18748;SDS011;9503;53.560;10.246;2023-06-14T01:36:33;8.63;;;4.30;;
18748;SDS011;9503;53.560;10.246;2023-06-14T01:39:02;8.13;;;3.83;;
18748;SDS011;9503;53.560;10.246;2023-06-14T01:41:32;5.80;;;3.50;;
18748;SDS011;9503;53.560;10.246;2023-06-14T01:44:01;7.80;;;4.00;;
18748;SDS011;9503;53.560;10.246;2023-06-14T01:46:28;4.73;;;3.70;;
18748;SDS011;9503;53.560;10.246;2023-06-14T01:48:55;5.20;;;3.57;;
18748;SDS011;9503;53.560;10.246;2023-06-14T01:51:21;7.63;;;4.17;;
18748;SDS011;9503;53.560;10.246;2023-06-14T01:53:48;6.17;;;4.30;;
18748;SDS011;9503;53.560;10.246;2023-06-14T01:56:15;10.53;;;4.37;;
18748;SDS011;9503;53.560;10.246;2023-06-14T01:58:43;9.27;;;4.13;;
18748;SDS011;9503;53.560;10.246;2023-06-14T02:01:09;10.40;;;4.37;;
18748;SDS011;9503;53.560;10.246;2023-06-14T02:03:37;6.60;;;3.47;;
18748;SDS011;9503;53.560;10.246;2023-06-14T02:06:04;7.70;;;3.87;;
18748;SDS011;9503;53.560;10.246;2023-06-14T02:08:31;8.47;;;4.13;;
18748;SDS011;9503;53.560;10.246;2023-06-14T02:10:57;5.83;;;3.53;;
18748;SDS011;9503;53.560;10.246;2023-06-14T02:13:24;8.30;;;3.70;;
18748;SDS011;9503;53.560;10.246;2023-06-14T02:15:52;7.07;;;4.10;;
18748;SDS011;9503;53.560;10.246;2023-06-14T02:18:19;7.10;;;4.27;;
18748;SDS011;9503;53.560;10.246;2023-06-14T02:20:46;8.20;;;3.90;;
18748;SDS011;9503;53.560;10.246;2023-06-14T02:23:12;7.10;;;4.03;;
18748;SDS011;9503;53.560;10.246;2023-06-14T02:25:40;8.23;;;4.17;;
18748;SDS011;9503;53.560;10.246;2023-06-14T02:28:08;7.43;;;4.30;;
18748;SDS011;9503;53.560;10.246;2023-06-14T02:30:34;7.57;;;3.97;;
18748;SDS011;9503;53.560;10.246;2023-06-14T02:33:02;7.97;;;4.40;;
18748;SDS011;9503;53.560;10.246;2023-06-14T02:35:29;8.20;;;4.63;;
18748;SDS011;9503;53.560;10.246;2023-06-14T02:37:56;5.73;;;4.07;;
18748;SDS011;9503;53.560;10.246;2023-06-14T02:40:23;8.37;;;4.30;;
18748;SDS011;9503;53.560;10.246;2023-06-14T02:42:49;8.77;;;4.33;;
18748;SDS011;9503;53.560;10.246;2023-06-14T02:45:16;7.30;;;4.20;;
18748;SDS011;9503;53.560;10.246;2023-06-14T02:47:43;7.27;;;4.17;;
18748;SDS011;9503;53.560;10.246;2023-06-14T02:50:12;8.70;;;4.10;;
18748;SDS011;9503;53.560;10.246;2023-06-14T02:52:38;7.70;;;4.27;;
18748;SDS011;9503;53.560;10.246;2023-06-14T02:55:07;8.70;;;4.37;;
18748;SDS011;9503;53.560;10.246;2023-06-14T02:57:34;6.30;;;4.50;;
18748;SDS011;9503;53.560;10.246;2023-06-14T03:00:01;6.07;;;3.83;;
18748;SDS011;9503;53.560;10.246;2023-06-14T03:02:28;8.87;;;4.10;;
18748;SDS011;9503;53.560;10.246;2023-06-14T03:04:54;6.97;;;4.30;;
18748;SDS011;9503;53.560;10.246;2023-06-14T03:07:27;9.50;;;4.43;;
18748;SDS011;9503;53.560;10.246;2023-06-14T03:09:54;11.07;;;4.90;;
18748;SDS011;9503;53.560;10.246;2023-06-14T03:12:21;9.77;;;5.33;;
18748;SDS011;9503;53.560;10.246;2023-06-14T03:14:48;8.10;;;4.50;;
18748;SDS011;9503;53.560;10.246;2023-06-14T03:17:16;8.77;;;4.27;;
18748;SDS011;9503;53.560;10.246;2023-06-14T03:19:44;7.50;;;4.80;;
18748;SDS011;9503;53.560;10.246;2023-06-14T03:22:11;8.67;;;5.13;;
18748;SDS011;9503;53.560;10.246;2023-06-14T03:24:39;8.90;;;4.50;;
18748;SDS011;9503;53.560;10.246;2023-06-14T03:27:06;7.00;;;4.63;;
18748;SDS011;9503;53.560;10.246;2023-06-14T03:29:35;9.83;;;5.20;;
18748;SDS011;9503;53.560;10.246;2023-06-14T03:32:02;10.23;;;4.60;;
18748;SDS011;9503;53.560;10.246;2023-06-14T03:34:29;7.77;;;4.60;;
18748;SDS011;9503;53.560;10.246;2023-06-14T03:36:56;10.00;;;4.87;;
18748;SDS011;9503;53.560;10.246;2023-06-14T03:39:23;9.67;;;4.83;;
18748;SDS011;9503;53.560;10.246;2023-06-14T03:41:50;7.07;;;4.77;;
18748;SDS011;9503;53.560;10.246;2023-06-14T03:44:18;7.70;;;4.37;;
18748;SDS011;9503;53.560;10.246;2023-06-14T03:46:45;5.73;;;4.23;;
18748;SDS011;9503;53.560;10.246;2023-06-14T03:49:11;10.57;;;4.23;;
18748;SDS011;9503;53.560;10.246;2023-06-14T03:51:38;9.77;;;4.60;;
18748;SDS011;9503;53.560;10.246;2023-06-14T03:54:05;8.17;;;4.67;;
18748;SDS011;9503;53.560;10.246;2023-06-14T03:56:32;7.27;;;4.50;;
18748;SDS011;9503;53.560;10.246;2023-06-14T03:59:00;6.63;;;4.20;;
18748;SDS011;9503;53.560;10.246;2023-06-14T04:01:27;8.03;;;4.50;;
18748;SDS011;9503;53.560;10.246;2023-06-14T04:03:55;8.77;;;4.40;;
18748;SDS011;9503;53.560;10.246;2023-06-14T04:06:22;9.60;;;4.63;;
18748;SDS011;9503;53.560;10.246;2023-06-14T04:08:50;7.60;;;4.43;;
18748;SDS011;9503;53.560;10.246;2023-06-14T04:11:17;7.30;;;3.77;;
18748;SDS011;9503;53.560;10.246;2023-06-14T04:13:44;8.07;;;4.20;;
18748;SDS011;9503;53.560;10.246;2023-06-14T04:16:13;6.43;;;3.78;;
18748;SDS011;9503;53.560;10.246;2023-06-14T04:18:40;6.43;;;4.25;;
18748;SDS011;9503;53.560;10.246;2023-06-14T04:21:06;7.53;;;3.85;;
18748;SDS011;9503;53.560;10.246;2023-06-14T04:23:33;7.35;;;3.28;;
18748;SDS011;9503;53.560;10.246;2023-06-14T04:26:00;5.57;;;3.42;;
18748;SDS011;9503;53.560;10.246;2023-06-14T04:28:27;8.40;;;3.42;;
18748;SDS011;9503;53.560;10.246;2023-06-14T04:30:55;8.82;;;3.85;;
18748;SDS011;9503;53.560;10.246;2023-06-14T04:33:22;7.53;;;4.20;;
18748;SDS011;9503;53.560;10.246;2023-06-14T04:35:50;9.90;;;4.18;;
18748;SDS011;9503;53.560;10.246;2023-06-14T04:38:18;7.03;;;4.13;;
18748;SDS011;9503;53.560;10.246;2023-06-14T04:40:50;6.53;;;4.00;;
18748;SDS011;9503;53.560;10.246;2023-06-14T04:43:18;8.48;;;3.90;;
18748;SDS011;9503;53.560;10.246;2023-06-14T04:45:50;7.55;;;3.53;;
18748;SDS011;9503;53.560;10.246;2023-06-14T04:48:16;7.32;;;3.83;;
18748;SDS011;9503;53.560;10.246;2023-06-14T04:50:46;6.95;;;3.55;;
18748;SDS011;9503;53.560;10.246;2023-06-14T04:53:12;7.32;;;3.90;;
18748;SDS011;9503;53.560;10.246;2023-06-14T04:55:39;7.38;;;4.07;;
18748;SDS011;9503;53.560;10.246;2023-06-14T04:58:09;12.63;;;3.80;;
18748;SDS011;9503;53.560;10.246;2023-06-14T05:00:37;5.53;;;3.72;;
18748;SDS011;9503;53.560;10.246;2023-06-14T05:03:04;10.70;;;4.00;;
18748;SDS011;9503;53.560;10.246;2023-06-14T05:05:33;6.80;;;3.67;;
18748;SDS011;9503;53.560;10.246;2023-06-14T05:08:01;7.60;;;3.90;;
18748;SDS011;9503;53.560;10.246;2023-06-14T05:10:28;8.25;;;3.63;;
18748;SDS011;9503;53.560;10.246;2023-06-14T05:12:54;8.70;;;3.63;;
18748;SDS011;9503;53.560;10.246;2023-06-14T05:15:21;7.18;;;3.75;;
18748;SDS011;9503;53.560;10.246;2023-06-14T05:17:51;5.20;;;3.40;;
18748;SDS011;9503;53.560;10.246;2023-06-14T05:20:20;12.52;;;4.65;;
18748;SDS011;9503;53.560;10.246;2023-06-14T05:22:47;6.68;;;3.47;;
18748;SDS011;9503;53.560;10.246;2023-06-14T05:25:16;6.63;;;3.40;;
18748;SDS011;9503;53.560;10.246;2023-06-14T05:27:43;5.65;;;3.45;;
18748;SDS011;9503;53.560;10.246;2023-06-14T05:30:10;6.25;;;3.25;;
18748;SDS011;9503;53.560;10.246;2023-06-14T05:32:37;8.27;;;3.15;;
18748;SDS011;9503;53.560;10.246;2023-06-14T05:35:04;5.00;;;3.25;;
18748;SDS011;9503;53.560;10.246;2023-06-14T05:37:32;8.93;;;3.28;;
18748;SDS011;9503;53.560;10.246;2023-06-14T05:39:58;5.03;;;3.63;;
18748;SDS011;9503;53.560;10.246;2023-06-14T05:42:26;7.32;;;3.55;;
18748;SDS011;9503;53.560;10.246;2023-06-14T05:44:53;6.03;;;3.38;;
18748;SDS011;9503;53.560;10.246;2023-06-14T05:47:20;9.02;;;3.28;;
18748;SDS011;9503;53.560;10.246;2023-06-14T05:49:47;7.45;;;3.65;;
18748;SDS011;9503;53.560;10.246;2023-06-14T05:52:13;8.38;;;3.50;;
18748;SDS011;9503;53.560;10.246;2023-06-14T05:54:40;10.70;;;3.72;;
18748;SDS011;9503;53.560;10.246;2023-06-14T05:57:07;6.95;;;3.75;;
18748;SDS011;9503;53.560;10.246;2023-06-14T05:59:35;5.53;;;3.28;;
18748;SDS011;9503;53.560;10.246;2023-06-14T06:02:01;6.88;;;3.45;;
18748;SDS011;9503;53.560;10.246;2023-06-14T06:04:28;5.20;;;3.38;;
18748;SDS011;9503;53.560;10.246;2023-06-14T06:06:54;5.60;;;3.58;;
18748;SDS011;9503;53.560;10.246;2023-06-14T06:09:21;6.38;;;3.33;;
18748;SDS011;9503;53.560;10.246;2023-06-14T06:11:48;9.00;;;4.05;;
18748;SDS011;9503;53.560;10.246;2023-06-14T06:14:14;4.68;;;2.95;;
18748;SDS011;9503;53.560;10.246;2023-06-14T06:16:42;7.63;;;3.30;;
18748;SDS011;9503;53.560;10.246;2023-06-14T06:19:09;4.97;;;3.13;;
18748;SDS011;9503;53.560;10.246;2023-06-14T06:21:35;5.38;;;2.92;;
18748;SDS011;9503;53.560;10.246;2023-06-14T06:24:02;4.57;;;2.90;;
18748;SDS011;9503;53.560;10.246;2023-06-14T06:26:30;3.45;;;3.15;;
18748;SDS011;9503;53.560;10.246;2023-06-14T06:28:57;5.35;;;3.17;;
18748;SDS011;9503;53.560;10.246;2023-06-14T06:31:24;5.28;;;3.08;;
18748;SDS011;9503;53.560;10.246;2023-06-14T06:33:53;7.07;;;3.47;;
18748;SDS011;9503;53.560;10.246;2023-06-14T06:36:20;4.57;;;3.13;;
18748;SDS011;9503;53.560;10.246;2023-06-14T06:38:47;4.78;;;2.83;;
18748;SDS011;9503;53.560;10.246;2023-06-14T06:41:14;5.32;;;3.00;;
18748;SDS011;9503;53.560;10.246;2023-06-14T06:43:40;6.90;;;3.20;;
18748;SDS011;9503;53.560;10.246;2023-06-14T06:46:07;6.88;;;3.13;;
18748;SDS011;9503;53.560;10.246;2023-06-14T06:48:34;6.43;;;3.55;;
18748;SDS011;9503;53.560;10.246;2023-06-14T06:51:02;5.82;;;3.40;;
18748;SDS011;9503;53.560;10.246;2023-06-14T06:53:29;7.20;;;2.67;;
18748;SDS011;9503;53.560;10.246;2023-06-14T06:55:55;3.22;;;2.72;;
18748;SDS011;9503;53.560;10.246;2023-06-14T06:58:22;4.00;;;3.00;;
18748;SDS011;9503;53.560;10.246;2023-06-14T07:00:48;3.30;;;2.83;;
18748;SDS011;9503;53.560;10.246;2023-06-14T07:03:15;4.55;;;2.97;;
18748;SDS011;9503;53.560;10.246;2023-06-14T07:05:43;5.97;;;2.95;;
18748;SDS011;9503;53.560;10.246;2023-06-14T07:08:11;5.88;;;3.10;;
18748;SDS011;9503;53.560;10.246;2023-06-14T07:10:37;5.55;;;2.85;;
18748;SDS011;9503;53.560;10.246;2023-06-14T07:13:04;5.18;;;2.88;;
18748;SDS011;9503;53.560;10.246;2023-06-14T07:15:31;5.25;;;2.80;;
18748;SDS011;9503;53.560;10.246;2023-06-14T07:17:57;5.53;;;3.00;;
18748;SDS011;9503;53.560;10.246;2023-06-14T07:20:24;3.40;;;2.90;;
18748;SDS011;9503;53.560;10.246;2023-06-14T07:22:51;4.80;;;2.47;;
18748;SDS011;9503;53.560;10.246;2023-06-14T07:25:19;3.22;;;2.47;;
18748;SDS011;9503;53.560;10.246;2023-06-14T07:27:47;5.40;;;2.75;;
18748;SDS011;9503;53.560;10.246;2023-06-14T07:30:14;6.57;;;2.78;;
18748;SDS011;9503;53.560;10.246;2023-06-14T07:32:40;4.82;;;2.70;;
18748;SDS011;9503;53.560;10.246;2023-06-14T07:35:07;3.63;;;2.90;;
18748;SDS011;9503;53.560;10.246;2023-06-14T07:37:34;3.33;;;3.03;;
18748;SDS011;9503;53.560;10.246;2023-06-14T07:40:01;5.93;;;2.92;;
18748;SDS011;9503;53.560;10.246;2023-06-14T07:42:33;3.35;;;3.05;;
18748;SDS011;9503;53.560;10.246;2023-06-14T07:45:00;4.05;;;2.78;;
18748;SDS011;9503;53.560;10.246;2023-06-14T07:47:27;5.28;;;2.90;;
18748;SDS011;9503;53.560;10.246;2023-06-14T07:49:53;4.47;;;2.85;;
18748;SDS011;9503;53.560;10.246;2023-06-14T07:52:20;5.32;;;2.88;;
18748;SDS011;9503;53.560;10.246;2023-06-14T07:54:47;2.78;;;2.50;;
18748;SDS011;9503;53.560;10.246;2023-06-14T07:57:13;3.65;;;2.95;;
18748;SDS011;9503;53.560;10.246;2023-06-14T07:59:41;6.15;;;2.90;;
18748;SDS011;9503;53.560;10.246;2023-06-14T08:02:08;4.43;;;2.90;;
18748;SDS011;9503;53.560;10.246;2023-06-14T08:04:35;4.20;;;2.60;;
18748;SDS011;9503;53.560;10.246;2023-06-14T08:07:01;3.92;;;2.67;;
18748;SDS011;9503;53.560;10.246;2023-06-14T08:09:28;5.43;;;2.83;;
18748;SDS011;9503;53.560;10.246;2023-06-14T08:11:55;7.40;;;3.00;;
18748;SDS011;9503;53.560;10.246;2023-06-14T08:14:21;4.82;;;2.78;;
18748;SDS011;9503;53.560;10.246;2023-06-14T08:16:50;2.95;;;2.65;;
18748;SDS011;9503;53.560;10.246;2023-06-14T08:19:16;3.03;;;2.38;;
18748;SDS011;9503;53.560;10.246;2023-06-14T08:21:43;4.78;;;2.70;;
18748;SDS011;9503;53.560;10.246;2023-06-14T08:24:10;4.60;;;2.90;;
18748;SDS011;9503;53.560;10.246;2023-06-14T08:26:38;3.85;;;2.90;;
18748;SDS011;9503;53.560;10.246;2023-06-14T08:29:04;4.57;;;3.20;;
18748;SDS011;9503;53.560;10.246;2023-06-14T08:31:32;6.20;;;2.80;;
18748;SDS011;9503;53.560;10.246;2023-06-14T08:33:59;7.90;;;3.35;;
18748;SDS011;9503;53.560;10.246;2023-06-14T08:36:26;8.95;;;3.08;;
18748;SDS011;9503;53.560;10.246;2023-06-14T08:38:53;3.45;;;2.63;;
18748;SDS011;9503;53.560;10.246;2023-06-14T08:41:21;4.38;;;2.95;;
18748;SDS011;9503;53.560;10.246;2023-06-14T08:43:49;4.78;;;2.60;;
18748;SDS011;9503;53.560;10.246;2023-06-14T08:46:17;2.80;;;2.55;;
18748;SDS011;9503;53.560;10.246;2023-06-14T08:48:45;3.63;;;2.90;;
18748;SDS011;9503;53.560;10.246;2023-06-14T08:51:14;6.25;;;3.03;;
18748;SDS011;9503;53.560;10.246;2023-06-14T08:53:45;2.88;;;2.67;;
18748;SDS011;9503;53.560;10.246;2023-06-14T08:56:16;4.22;;;2.63;;
18748;SDS011;9503;53.560;10.246;2023-06-14T08:58:42;4.57;;;3.10;;
18748;SDS011;9503;53.560;10.246;2023-06-14T09:01:11;4.78;;;2.90;;
18748;SDS011;9503;53.560;10.246;2023-06-14T09:03:39;5.50;;;3.10;;
18748;SDS011;9503;53.560;10.246;2023-06-14T09:06:06;5.38;;;3.28;;
18748;SDS011;9503;53.560;10.246;2023-06-14T09:08:40;5.95;;;3.10;;
18748;SDS011;9503;53.560;10.246;2023-06-14T09:11:08;4.43;;;3.28;;
18748;SDS011;9503;53.560;10.246;2023-06-14T09:13:37;4.65;;;2.83;;
18748;SDS011;9503;53.560;10.246;2023-06-14T09:16:04;4.57;;;2.75;;
18748;SDS011;9503;53.560;10.246;2023-06-14T09:18:34;7.20;;;3.05;;
18748;SDS011;9503;53.560;10.246;2023-06-14T09:21:02;3.00;;;2.70;;
18748;SDS011;9503;53.560;10.246;2023-06-14T09:23:29;5.72;;;2.97;;
18748;SDS011;9503;53.560;10.246;2023-06-14T09:25:57;6.65;;;2.97;;
18748;SDS011;9503;53.560;10.246;2023-06-14T09:28:26;5.35;;;3.30;;
18748;SDS011;9503;53.560;10.246;2023-06-14T09:30:53;4.50;;;3.33;;
18748;SDS011;9503;53.560;10.246;2023-06-14T09:33:20;6.78;;;3.17;;
18748;SDS011;9503;53.560;10.246;2023-06-14T09:35:50;3.88;;;2.92;;
18748;SDS011;9503;53.560;10.246;2023-06-14T09:38:17;3.10;;;2.88;;
18748;SDS011;9503;53.560;10.246;2023-06-14T09:40:44;12.70;;;3.53;;
18748;SDS011;9503;53.560;10.246;2023-06-14T09:43:12;5.50;;;3.10;;
18748;SDS011;9503;53.560;10.246;2023-06-14T09:45:38;6.40;;;2.95;;
18748;SDS011;9503;53.560;10.246;2023-06-14T09:48:06;5.00;;;3.25;;
18748;SDS011;9503;53.560;10.246;2023-06-14T09:50:33;6.15;;;3.15;;
18748;SDS011;9503;53.560;10.246;2023-06-14T09:53:02;10.65;;;3.40;;
18748;SDS011;9503;53.560;10.246;2023-06-14T09:55:31;4.75;;;2.97;;
18748;SDS011;9503;53.560;10.246;2023-06-14T09:58:01;4.75;;;3.33;;
18748;SDS011;9503;53.560;10.246;2023-06-14T10:00:32;4.60;;;3.00;;
18748;SDS011;9503;53.560;10.246;2023-06-14T10:03:00;4.88;;;3.30;;
18748;SDS011;9503;53.560;10.246;2023-06-14T10:05:32;6.53;;;3.80;;
18748;SDS011;9503;53.560;10.246;2023-06-14T10:08:04;10.55;;;3.50;;
18748;SDS011;9503;53.560;10.246;2023-06-14T10:10:34;6.85;;;3.17;;
18748;SDS011;9503;53.560;10.246;2023-06-14T10:13:00;7.88;;;3.35;;
18748;SDS011;9503;53.560;10.246;2023-06-14T10:15:28;7.05;;;3.30;;
18748;SDS011;9503;53.560;10.246;2023-06-14T10:18:04;6.13;;;3.40;;
18748;SDS011;9503;53.560;10.246;2023-06-14T10:20:41;9.93;;;3.10;;
18748;SDS011;9503;53.560;10.246;2023-06-14T10:23:16;7.30;;;3.38;;
18748;SDS011;9503;53.560;10.246;2023-06-14T10:25:49;6.03;;;3.03;;
18748;SDS011;9503;53.560;10.246;2023-06-14T10:28:17;9.13;;;3.15;;
18748;SDS011;9503;53.560;10.246;2023-06-14T10:31:06;6.57;;;3.35;;
18748;SDS011;9503;53.560;10.246;2023-06-14T10:33:36;6.15;;;3.60;;
18748;SDS011;9503;53.560;10.246;2023-06-14T10:36:09;9.32;;;3.40;;
18748;SDS011;9503;53.560;10.246;2023-06-14T10:38:56;4.90;;;3.30;;
18748;SDS011;9503;53.560;10.246;2023-06-14T10:41:23;5.22;;;3.30;;
18748;SDS011;9503;53.560;10.246;2023-06-14T10:43:52;5.28;;;3.42;;
18748;SDS011;9503;53.560;10.246;2023-06-14T10:46:36;6.55;;;3.17;;
18748;SDS011;9503;53.560;10.246;2023-06-14T10:49:04;8.25;;;3.60;;
18748;SDS011;9503;53.560;10.246;2023-06-14T10:51:37;6.47;;;3.28;;
18748;SDS011;9503;53.560;10.246;2023-06-14T10:54:11;9.00;;;3.25;;
18748;SDS011;9503;53.560;10.246;2023-06-14T10:56:41;7.18;;;3.20;;
18748;SDS011;9503;53.560;10.246;2023-06-14T10:59:12;3.63;;;3.17;;
18748;SDS011;9503;53.560;10.246;2023-06-14T11:01:40;4.88;;;3.08;;
18748;SDS011;9503;53.560;10.246;2023-06-14T11:04:20;8.55;;;3.22;;
18748;SDS011;9503;53.560;10.246;2023-06-14T11:06:47;5.05;;;3.50;;
18748;SDS011;9503;53.560;10.246;2023-06-14T11:09:24;3.95;;;2.90;;
18748;SDS011;9503;53.560;10.246;2023-06-14T11:12:13;5.53;;;2.92;;
18748;SDS011;9503;53.560;10.246;2023-06-14T11:14:41;3.97;;;2.90;;
18748;SDS011;9503;53.560;10.246;2023-06-14T11:17:08;5.95;;;3.10;;
18748;SDS011;9503;53.560;10.246;2023-06-14T11:19:36;7.53;;;3.22;;
18748;SDS011;9503;53.560;10.246;2023-06-14T11:22:03;7.18;;;3.30;;
18748;SDS011;9503;53.560;10.246;2023-06-14T11:24:31;9.20;;;3.25;;
18748;SDS011;9503;53.560;10.246;2023-06-14T11:26:58;9.45;;;3.22;;
18748;SDS011;9503;53.560;10.246;2023-06-14T11:29:25;5.20;;;3.22;;
18748;SDS011;9503;53.560;10.246;2023-06-14T11:31:52;7.60;;;3.10;;
18748;SDS011;9503;53.560;10.246;2023-06-14T11:34:18;3.75;;;3.05;;
18748;SDS011;9503;53.560;10.246;2023-06-14T11:36:46;6.15;;;2.97;;
18748;SDS011;9503;53.560;10.246;2023-06-14T11:39:13;3.67;;;2.85;;
18748;SDS011;9503;53.560;10.246;2023-06-14T11:41:41;7.93;;;3.30;;
18748;SDS011;9503;53.560;10.246;2023-06-14T11:44:09;6.85;;;3.38;;
18748;SDS011;9503;53.560;10.246;2023-06-14T11:46:36;6.10;;;3.28;;
18748;SDS011;9503;53.560;10.246;2023-06-14T11:49:03;5.07;;;3.30;;
18748;SDS011;9503;53.560;10.246;2023-06-14T11:51:32;4.15;;;3.22;;
18748;SDS011;9503;53.560;10.246;2023-06-14T11:54:00;6.30;;;2.63;;
18748;SDS011;9503;53.560;10.246;2023-06-14T11:56:28;4.18;;;3.25;;
18748;SDS011;9503;53.560;10.246;2023-06-14T11:58:56;4.13;;;2.88;;
18748;SDS011;9503;53.560;10.246;2023-06-14T12:01:23;7.18;;;3.08;;
18748;SDS011;9503;53.560;10.246;2023-06-14T12:03:51;7.63;;;3.20;;
18748;SDS011;9503;53.560;10.246;2023-06-14T12:06:25;6.72;;;3.28;;
18748;SDS011;9503;53.560;10.246;2023-06-14T12:08:55;6.75;;;3.25;;
18748;SDS011;9503;53.560;10.246;2023-06-14T12:11:23;5.93;;;3.03;;
18748;SDS011;9503;53.560;10.246;2023-06-14T12:13:50;3.88;;;3.08;;
18748;SDS011;9503;53.560;10.246;2023-06-14T12:16:16;6.93;;;3.65;;
18748;SDS011;9503;53.560;10.246;2023-06-14T12:18:43;4.15;;;2.92;;
18748;SDS011;9503;53.560;10.246;2023-06-14T12:21:10;6.97;;;3.08;;
18748;SDS011;9503;53.560;10.246;2023-06-14T12:23:42;7.97;;;3.08;;
18748;SDS011;9503;53.560;10.246;2023-06-14T12:26:09;7.63;;;3.30;;
18748;SDS011;9503;53.560;10.246;2023-06-14T12:28:41;6.38;;;3.47;;
18748;SDS011;9503;53.560;10.246;2023-06-14T12:31:08;4.22;;;3.20;;
18748;SDS011;9503;53.560;10.246;2023-06-14T12:33:35;6.28;;;3.17;;
18748;SDS011;9503;53.560;10.246;2023-06-14T12:36:03;3.53;;;2.78;;
18748;SDS011;9503;53.560;10.246;2023-06-14T12:38:30;7.20;;;3.42;;
18748;SDS011;9503;53.560;10.246;2023-06-14T12:40:56;7.70;;;3.03;;
18748;SDS011;9503;53.560;10.246;2023-06-14T12:43:23;10.55;;;3.25;;
18748;SDS011;9503;53.560;10.246;2023-06-14T12:45:51;6.15;;;3.20;;
18748;SDS011;9503;53.560;10.246;2023-06-14T12:48:18;3.83;;;2.92;;
18748;SDS011;9503;53.560;10.246;2023-06-14T12:50:45;3.55;;;2.85;;
18748;SDS011;9503;53.560;10.246;2023-06-14T12:53:12;6.53;;;2.80;;
18748;SDS011;9503;53.560;10.246;2023-06-14T12:55:38;5.68;;;3.47;;
18748;SDS011;9503;53.560;10.246;2023-06-14T12:58:05;4.45;;;2.80;;
18748;SDS011;9503;53.560;10.246;2023-06-14T13:00:31;4.45;;;2.80;;
18748;SDS011;9503;53.560;10.246;2023-06-14T13:02:59;3.42;;;2.80;;
18748;SDS011;9503;53.560;10.246;2023-06-14T13:05:26;4.70;;;2.75;;
18748;SDS011;9503;53.560;10.246;2023-06-14T13:07:53;4.97;;;2.90;;
18748;SDS011;9503;53.560;10.246;2023-06-14T13:10:20;4.63;;;3.00;;
18748;SDS011;9503;53.560;10.246;2023-06-14T13:12:46;8.73;;;2.97;;
18748;SDS011;9503;53.560;10.246;2023-06-14T13:15:13;7.90;;;3.00;;
18748;SDS011;9503;53.560;10.246;2023-06-14T13:17:40;3.28;;;2.97;;
18748;SDS011;9503;53.560;10.246;2023-06-14T13:20:10;4.47;;;2.67;;
18748;SDS011;9503;53.560;10.246;2023-06-14T13:22:36;5.25;;;2.97;;
18748;SDS011;9503;53.560;10.246;2023-06-14T13:25:05;3.95;;;2.83;;
18748;SDS011;9503;53.560;10.246;2023-06-14T13:27:32;4.55;;;2.78;;
18748;SDS011;9503;53.560;10.246;2023-06-14T13:29:58;5.40;;;2.70;;
18748;SDS011;9503;53.560;10.246;2023-06-14T13:32:25;7.05;;;2.60;;
18748;SDS011;9503;53.560;10.246;2023-06-14T13:34:52;3.17;;;2.88;;
18748;SDS011;9503;53.560;10.246;2023-06-14T13:37:20;9.02;;;3.35;;
18748;SDS011;9503;53.560;10.246;2023-06-14T13:39:46;2.83;;;2.40;;
18748;SDS011;9503;53.560;10.246;2023-06-14T13:42:13;4.70;;;3.25;;
18748;SDS011;9503;53.560;10.246;2023-06-14T13:44:40;4.28;;;2.70;;
18748;SDS011;9503;53.560;10.246;2023-06-14T13:47:06;5.57;;;2.92;;
18748;SDS011;9503;53.560;10.246;2023-06-14T13:49:33;6.43;;;2.97;;
18748;SDS011;9503;53.560;10.246;2023-06-14T13:52:00;6.75;;;3.10;;
18748;SDS011;9503;53.560;10.246;2023-06-14T13:54:29;5.85;;;2.80;;
18748;SDS011;9503;53.560;10.246;2023-06-14T13:56:55;7.82;;;2.80;;
18748;SDS011;9503;53.560;10.246;2023-06-14T13:59:22;4.80;;;2.88;;
18748;SDS011;9503;53.560;10.246;2023-06-14T14:01:48;3.25;;;2.70;;
18748;SDS011;9503;53.560;10.246;2023-06-14T14:04:15;4.57;;;2.90;;
18748;SDS011;9503;53.560;10.246;2023-06-14T14:06:42;6.20;;;2.97;;
18748;SDS011;9503;53.560;10.246;2023-06-14T14:09:09;5.65;;;2.65;;
18748;SDS011;9503;53.560;10.246;2023-06-14T14:11:37;5.72;;;2.70;;
18748;SDS011;9503;53.560;10.246;2023-06-14T14:14:04;5.28;;;2.90;;
18748;SDS011;9503;53.560;10.246;2023-06-14T14:16:31;4.70;;;2.80;;
18748;SDS011;9503;53.560;10.246;2023-06-14T14:18:58;5.00;;;3.10;;
18748;SDS011;9503;53.560;10.246;2023-06-14T14:21:24;6.85;;;2.70;;
18748;SDS011;9503;53.560;10.246;2023-06-14T14:23:51;6.78;;;3.10;;
18748;SDS011;9503;53.560;10.246;2023-06-14T14:26:18;6.13;;;2.90;;
18748;SDS011;9503;53.560;10.246;2023-06-14T14:28:47;8.25;;;2.75;;
18748;SDS011;9503;53.560;10.246;2023-06-14T14:31:13;3.08;;;2.70;;
18748;SDS011;9503;53.560;10.246;2023-06-14T14:33:40;5.22;;;2.85;;
18748;SDS011;9503;53.560;10.246;2023-06-14T14:36:06;5.82;;;2.83;;
18748;SDS011;9503;53.560;10.246;2023-06-14T14:38:33;6.93;;;2.83;;
18748;SDS011;9503;53.560;10.246;2023-06-14T14:41:00;7.28;;;3.03;;
18748;SDS011;9503;53.560;10.246;2023-06-14T14:43:27;5.53;;;2.78;;
18748;SDS011;9503;53.560;10.246;2023-06-14T14:45:57;6.72;;;3.00;;
18748;SDS011;9503;53.560;10.246;2023-06-14T14:48:23;2.55;;;2.30;;
18748;SDS011;9503;53.560;10.246;2023-06-14T14:50:50;4.88;;;2.95;;